sensor_id;sensor_type;location;lat;lon;timestamp;P1;durP1;ratioP1;P2;durP2;ratioP2
23099;SDS011;53791;50.696;4.396;2022-08-03T16:50:10;33.30;;;30.43;;
23099;SDS011;53791;50.696;4.396;2022-08-03T16:52:38;4.30;;;4.00;;
23099;SDS011;53791;50.696;4.396;2022-08-03T16:55:07;5.60;;;5.20;;
23099;SDS011;53791;50.696;4.396;2022-08-03T16:57:36;5.35;;;4.95;;
23099;SDS011;53791;50.696;4.396;2022-08-03T17:00:04;5.80;;;5.40;;
23099;SDS011;53791;50.696;4.396;2022-08-03T17:02:34;5.97;;;5.58;;
23099;SDS011;53791;50.696;4.396;2022-08-03T17:05:01;5.72;;;5.33;;
23099;SDS011;53791;50.696;4.396;2022-08-03T17:07:29;5.65;;;5.25;;
23099;SDS011;53791;50.696;4.396;2022-08-03T17:09:58;5.40;;;5.00;;
23099;SDS011;53791;50.696;4.396;2022-08-03T17:12:26;4.62;;;4.22;;
23099;SDS011;53791;50.696;4.396;2022-08-03T17:14:54;5.22;;;4.83;;
23099;SDS011;53791;50.696;4.396;2022-08-03T17:17:29;5.90;;;5.50;;
23099;SDS011;53791;50.696;4.396;2022-08-03T17:19:55;5.20;;;4.80;;
23099;SDS011;53791;50.696;4.396;2022-08-03T17:22:30;5.72;;;5.33;;
23099;SDS011;53791;50.696;4.396;2022-08-03T17:25:03;5.70;;;5.30;;
23099;SDS011;53791;50.696;4.396;2022-08-03T17:27:33;5.30;;;4.90;;
23099;SDS011;53791;50.696;4.396;2022-08-03T17:30:05;5.80;;;5.40;;
23099;SDS011;53791;50.696;4.396;2022-08-03T17:32:35;5.60;;;5.20;;
23099;SDS011;53791;50.696;4.396;2022-08-03T17:35:06;6.12;;;5.62;;
23099;SDS011;53791;50.696;4.396;2022-08-03T17:37:34;5.78;;;5.30;;
23099;SDS011;53791;50.696;4.396;2022-08-03T17:40:02;6.30;;;5.80;;
23099;SDS011;53791;50.696;4.396;2022-08-03T17:42:30;5.95;;;5.53;;
23099;SDS011;53791;50.696;4.396;2022-08-03T17:44:59;7.03;;;5.83;;
23099;SDS011;53791;50.696;4.396;2022-08-03T17:47:27;6.22;;;5.72;;
23099;SDS011;53791;50.696;4.396;2022-08-03T17:49:55;6.53;;;5.40;;
23099;SDS011;53791;50.696;4.396;2022-08-03T17:52:36;6.17;;;5.60;;
23099;SDS011;53791;50.696;4.396;2022-08-03T17:55:12;6.42;;;5.92;;
23099;SDS011;53791;50.696;4.396;2022-08-03T17:57:52;6.58;;;6.08;;
23099;SDS011;53791;50.696;4.396;2022-08-03T18:00:22;6.05;;;5.65;;
23099;SDS011;53791;50.696;4.396;2022-08-03T18:03:18;5.83;;;5.40;;
23099;SDS011;53791;50.696;4.396;2022-08-03T18:05:55;6.37;;;5.90;;
23099;SDS011;53791;50.696;4.396;2022-08-03T18:08:32;6.42;;;6.00;;
23099;SDS011;53791;50.696;4.396;2022-08-03T18:10:58;18.15;;;6.65;;
23099;SDS011;53791;50.696;4.396;2022-08-03T18:13:49;7.03;;;6.50;;
23099;SDS011;53791;50.696;4.396;2022-08-03T18:16:33;6.70;;;6.20;;
23099;SDS011;53791;50.696;4.396;2022-08-03T18:19:01;7.17;;;6.10;;
23099;SDS011;53791;50.696;4.396;2022-08-03T18:21:29;6.95;;;6.45;;
23099;SDS011;53791;50.696;4.396;2022-08-03T18:26:53;7.08;;;6.58;;
23099;SDS011;53791;50.696;4.396;2022-08-03T18:29:21;6.72;;;6.22;;
23099;SDS011;53791;50.696;4.396;2022-08-03T18:31:55;7.35;;;6.55;;
23099;SDS011;53791;50.696;4.396;2022-08-03T18:34:22;6.67;;;6.17;;
23099;SDS011;53791;50.696;4.396;2022-08-03T18:36:52;6.80;;;6.30;;
23099;SDS011;53791;50.696;4.396;2022-08-03T18:39:20;6.60;;;6.10;;
23099;SDS011;53791;50.696;4.396;2022-08-03T18:41:47;6.47;;;5.97;;
23099;SDS011;53791;50.696;4.396;2022-08-03T18:44:15;12.73;;;6.12;;
23099;SDS011;53791;50.696;4.396;2022-08-03T18:46:49;6.10;;;5.60;;
23099;SDS011;53791;50.696;4.396;2022-08-03T18:49:22;6.58;;;6.08;;
23099;SDS011;53791;50.696;4.396;2022-08-03T18:52:02;7.10;;;6.60;;
23099;SDS011;53791;50.696;4.396;2022-08-03T18:54:37;7.55;;;6.95;;
23099;SDS011;53791;50.696;4.396;2022-08-03T18:57:02;7.70;;;7.00;;
23099;SDS011;53791;50.696;4.396;2022-08-03T19:05:04;7.97;;;7.28;;
23099;SDS011;53791;50.696;4.396;2022-08-03T19:07:35;7.70;;;7.10;;
23099;SDS011;53791;50.696;4.396;2022-08-03T19:10:09;7.50;;;7.00;;
23099;SDS011;53791;50.696;4.396;2022-08-03T19:12:40;7.90;;;7.28;;
23099;SDS011;53791;50.696;4.396;2022-08-03T19:15:05;8.48;;;7.78;;
23099;SDS011;53791;50.696;4.396;2022-08-03T19:17:38;8.13;;;7.47;;
23099;SDS011;53791;50.696;4.396;2022-08-03T19:20:08;7.83;;;7.30;;
23099;SDS011;53791;50.696;4.396;2022-08-03T19:22:37;7.60;;;7.10;;
23099;SDS011;53791;50.696;4.396;2022-08-03T19:25:06;7.20;;;6.70;;
23099;SDS011;53791;50.696;4.396;2022-08-03T19:27:35;8.15;;;7.25;;
23099;SDS011;53791;50.696;4.396;2022-08-03T19:30:06;6.90;;;6.40;;
23099;SDS011;53791;50.696;4.396;2022-08-03T19:32:34;6.80;;;6.30;;
23099;SDS011;53791;50.696;4.396;2022-08-03T19:35:03;8.75;;;6.50;;
23099;SDS011;53791;50.696;4.396;2022-08-03T19:37:32;6.87;;;6.37;;
23099;SDS011;53791;50.696;4.396;2022-08-03T19:40:00;7.12;;;6.53;;
23099;SDS011;53791;50.696;4.396;2022-08-03T19:42:30;7.03;;;6.50;;
23099;SDS011;53791;50.696;4.396;2022-08-03T19:45:04;12.35;;;6.60;;
23099;SDS011;53791;50.696;4.396;2022-08-03T19:47:39;6.62;;;6.12;;
23099;SDS011;53791;50.696;4.396;2022-08-03T19:50:07;7.53;;;6.83;;
23099;SDS011;53791;50.696;4.396;2022-08-03T19:52:37;7.08;;;6.47;;
23099;SDS011;53791;50.696;4.396;2022-08-03T19:55:08;6.95;;;6.40;;
23099;SDS011;53791;50.696;4.396;2022-08-03T19:57:37;6.95;;;6.45;;
23099;SDS011;53791;50.696;4.396;2022-08-03T20:00:06;7.17;;;6.65;;
23099;SDS011;53791;50.696;4.396;2022-08-03T20:02:37;7.30;;;6.80;;
23099;SDS011;53791;50.696;4.396;2022-08-03T20:05:08;7.83;;;7.28;;
23099;SDS011;53791;50.696;4.396;2022-08-03T20:07:37;12.43;;;7.30;;
23099;SDS011;53791;50.696;4.396;2022-08-03T20:10:07;7.72;;;7.15;;
23099;SDS011;53791;50.696;4.396;2022-08-03T20:12:34;7.50;;;7.00;;
23099;SDS011;53791;50.696;4.396;2022-08-03T20:15:18;7.70;;;7.20;;
23099;SDS011;53791;50.696;4.396;2022-08-03T20:17:43;7.80;;;7.20;;
23099;SDS011;53791;50.696;4.396;2022-08-03T20:20:11;7.67;;;7.12;;
23099;SDS011;53791;50.696;4.396;2022-08-03T20:22:41;7.35;;;6.85;;
23099;SDS011;53791;50.696;4.396;2022-08-03T20:25:12;8.10;;;7.50;;
23099;SDS011;53791;50.696;4.396;2022-08-03T20:27:45;7.80;;;7.20;;
23099;SDS011;53791;50.696;4.396;2022-08-03T20:30:14;7.70;;;7.20;;
23099;SDS011;53791;50.696;4.396;2022-08-03T20:32:42;7.90;;;7.30;;
23099;SDS011;53791;50.696;4.396;2022-08-03T20:35:10;7.92;;;7.42;;
23099;SDS011;53791;50.696;4.396;2022-08-03T20:37:37;7.90;;;7.40;;
23099;SDS011;53791;50.696;4.396;2022-08-03T20:40:05;8.13;;;7.53;;
23099;SDS011;53791;50.696;4.396;2022-08-03T20:42:33;7.72;;;7.20;;
23099;SDS011;53791;50.696;4.396;2022-08-03T20:45:00;8.33;;;7.62;;
23099;SDS011;53791;50.696;4.396;2022-08-03T20:47:28;8.35;;;7.65;;
23099;SDS011;53791;50.696;4.396;2022-08-03T20:49:56;7.92;;;7.37;;
23099;SDS011;53791;50.696;4.396;2022-08-03T20:52:25;8.53;;;7.72;;
23099;SDS011;53791;50.696;4.396;2022-08-03T20:54:56;8.18;;;7.47;;
23099;SDS011;53791;50.696;4.396;2022-08-03T20:57:24;7.97;;;7.37;;
23099;SDS011;53791;50.696;4.396;2022-08-03T20:59:52;7.42;;;6.92;;
23099;SDS011;53791;50.696;4.396;2022-08-03T21:02:21;7.70;;;7.15;;
23099;SDS011;53791;50.696;4.396;2022-08-03T21:04:48;8.18;;;7.47;;
23099;SDS011;53791;50.696;4.396;2022-08-03T21:07:19;7.70;;;7.17;;
23099;SDS011;53791;50.696;4.396;2022-08-03T21:09:52;7.95;;;7.25;;
23099;SDS011;53791;50.696;4.396;2022-08-03T21:12:25;7.40;;;6.90;;
23099;SDS011;53791;50.696;4.396;2022-08-03T21:15:07;8.15;;;7.55;;
23099;SDS011;53791;50.696;4.396;2022-08-03T21:17:40;7.70;;;7.20;;
23099;SDS011;53791;50.696;4.396;2022-08-03T21:20:12;8.20;;;7.60;;
23099;SDS011;53791;50.696;4.396;2022-08-03T21:22:42;8.23;;;7.62;;
23099;SDS011;53791;50.696;4.396;2022-08-03T21:25:23;8.30;;;7.70;;
23099;SDS011;53791;50.696;4.396;2022-08-03T21:27:57;7.75;;;7.15;;
23099;SDS011;53791;50.696;4.396;2022-08-03T21:30:28;8.63;;;7.92;;
23099;SDS011;53791;50.696;4.396;2022-08-03T21:32:56;8.83;;;8.13;;
23099;SDS011;53791;50.696;4.396;2022-08-03T21:35:24;8.30;;;7.67;;
23099;SDS011;53791;50.696;4.396;2022-08-03T21:37:52;9.88;;;9.08;;
23099;SDS011;53791;50.696;4.396;2022-08-03T21:40:21;8.58;;;7.97;;
23099;SDS011;53791;50.696;4.396;2022-08-03T21:42:49;8.10;;;7.50;;
23099;SDS011;53791;50.696;4.396;2022-08-03T21:45:17;8.63;;;8.03;;
23099;SDS011;53791;50.696;4.396;2022-08-03T21:47:44;7.87;;;7.37;;
23099;SDS011;53791;50.696;4.396;2022-08-03T21:50:13;8.43;;;7.83;;
23099;SDS011;53791;50.696;4.396;2022-08-03T21:52:44;9.08;;;8.38;;
23099;SDS011;53791;50.696;4.396;2022-08-03T21:55:13;8.10;;;7.50;;
23099;SDS011;53791;50.696;4.396;2022-08-03T21:57:42;8.30;;;7.70;;
23099;SDS011;53791;50.696;4.396;2022-08-03T22:00:14;8.40;;;7.80;;
23099;SDS011;53791;50.696;4.396;2022-08-03T22:02:45;8.10;;;7.50;;
23099;SDS011;53791;50.696;4.396;2022-08-03T22:05:20;7.65;;;7.15;;
23099;SDS011;53791;50.696;4.396;2022-08-03T22:07:49;7.85;;;7.33;;
23099;SDS011;53791;50.696;4.396;2022-08-03T22:10:18;7.65;;;7.12;;
23099;SDS011;53791;50.696;4.396;2022-08-03T22:12:46;7.87;;;7.28;;
23099;SDS011;53791;50.696;4.396;2022-08-03T22:15:15;8.33;;;7.72;;
23099;SDS011;53791;50.696;4.396;2022-08-03T22:17:42;7.72;;;7.17;;
23099;SDS011;53791;50.696;4.396;2022-08-03T22:20:10;8.18;;;7.53;;
23099;SDS011;53791;50.696;4.396;2022-08-03T22:22:43;7.87;;;7.28;;
23099;SDS011;53791;50.696;4.396;2022-08-03T22:25:13;8.50;;;7.72;;
23099;SDS011;53791;50.696;4.396;2022-08-03T22:27:42;8.13;;;7.42;;
23099;SDS011;53791;50.696;4.396;2022-08-03T22:30:14;8.68;;;7.90;;
23099;SDS011;53791;50.696;4.396;2022-08-03T22:32:44;7.78;;;7.25;;
23099;SDS011;53791;50.696;4.396;2022-08-03T22:35:13;8.33;;;7.72;;
23099;SDS011;53791;50.696;4.396;2022-08-03T22:37:42;13.78;;;12.82;;
23099;SDS011;53791;50.696;4.396;2022-08-03T22:40:15;14.15;;;13.15;;
23099;SDS011;53791;50.696;4.396;2022-08-03T22:42:43;14.00;;;13.00;;
23099;SDS011;53791;50.696;4.396;2022-08-03T22:45:13;14.47;;;13.43;;
23099;SDS011;53791;50.696;4.396;2022-08-03T22:47:41;14.33;;;13.28;;
23099;SDS011;53791;50.696;4.396;2022-08-03T22:50:09;14.05;;;12.80;;
23099;SDS011;53791;50.696;4.396;2022-08-03T22:52:39;14.33;;;13.32;;
23099;SDS011;53791;50.696;4.396;2022-08-03T22:55:12;12.80;;;12.00;;
23099;SDS011;53791;50.696;4.396;2022-08-03T22:57:41;12.60;;;11.63;;
23099;SDS011;53791;50.696;4.396;2022-08-03T23:00:10;12.58;;;11.73;;
23099;SDS011;53791;50.696;4.396;2022-08-03T23:02:40;14.25;;;13.25;;
23099;SDS011;53791;50.696;4.396;2022-08-03T23:05:14;13.10;;;12.18;;
23099;SDS011;53791;50.696;4.396;2022-08-03T23:07:43;15.63;;;14.53;;
23099;SDS011;53791;50.696;4.396;2022-08-03T23:10:11;18.40;;;17.00;;
23099;SDS011;53791;50.696;4.396;2022-08-03T23:12:41;18.75;;;17.35;;
23099;SDS011;53791;50.696;4.396;2022-08-03T23:15:10;16.45;;;15.32;;
23099;SDS011;53791;50.696;4.396;2022-08-03T23:17:42;16.55;;;15.45;;
23099;SDS011;53791;50.696;4.396;2022-08-03T23:20:18;17.80;;;16.50;;
23099;SDS011;53791;50.696;4.396;2022-08-03T23:22:46;18.15;;;16.95;;
23099;SDS011;53791;50.696;4.396;2022-08-03T23:25:15;16.12;;;15.03;;
23099;SDS011;53791;50.696;4.396;2022-08-03T23:27:46;17.62;;;16.42;;
23099;SDS011;53791;50.696;4.396;2022-08-03T23:30:15;16.85;;;15.70;;
23099;SDS011;53791;50.696;4.396;2022-08-03T23:32:43;15.43;;;14.13;;
23099;SDS011;53791;50.696;4.396;2022-08-03T23:35:11;15.53;;;14.53;;
23099;SDS011;53791;50.696;4.396;2022-08-03T23:37:58;15.60;;;14.50;;
23099;SDS011;53791;50.696;4.396;2022-08-03T23:40:28;15.35;;;14.28;;
23099;SDS011;53791;50.696;4.396;2022-08-03T23:42:57;15.75;;;14.55;;
23099;SDS011;53791;50.696;4.396;2022-08-03T23:45:26;16.67;;;15.58;;
23099;SDS011;53791;50.696;4.396;2022-08-03T23:47:59;18.62;;;17.32;;
23099;SDS011;53791;50.696;4.396;2022-08-03T23:50:39;19.82;;;18.35;;
23099;SDS011;53791;50.696;4.396;2022-08-03T23:53:08;16.00;;;14.90;;
23099;SDS011;53791;50.696;4.396;2022-08-03T23:56:07;17.65;;;16.45;;
23099;SDS011;53791;50.696;4.396;2022-08-03T23:58:42;14.98;;;13.88;;
